Time;durP1;ratioP1;P1;durP2;ratioP2;P2;SDS_P1;SDS_P2;PMS_P1;PMS_P2;Temp;Humidity;BMP_temperature;BMP_pressure;BME280_temperature;BME280_humidity;BME280_pressure;Samples;Min_cycle;Max_cycle;Signal;HPM_P1;HPM_P2
2023/09/23 00:00:49;;;;;;;4.43;1.60;;;;;;;;;;5055217;28;20471;-76
2023/09/23 00:03:18;;;;;;;3.03;1.13;;;;;;;;;;5048440;28;20446;-75
2023/09/23 00:05:45;;;;;;;1.90;0.90;;;;;;;;;;5034386;28;20510;-76
2023/09/23 00:08:13;;;;;;;4.30;1.23;;;;;;;;;;5034501;28;20437;-76
2023/09/23 00:10:40;;;;;;;2.50;0.90;;;;;;;;;;5035298;28;20497;-76
2023/09/23 00:13:07;;;;;;;3.10;1.40;;;;;;;;;;5034832;28;20440;-76
2023/09/23 00:15:37;;;;;;;3.53;1.00;;;;;;;;;;5035115;28;20461;-75
2023/09/23 00:18:04;;;;;;;6.50;1.60;;;;;;;;;;5034684;28;20931;-76
2023/09/23 00:20:33;;;;;;;2.80;1.50;;;;;;;;;;5034726;28;20436;-75
2023/09/23 00:23:02;;;;;;;2.20;1.00;;;;;;;;;;5034478;28;20522;-76
2023/09/23 00:25:29;;;;;;;1.70;0.60;;;;;;;;;;5035169;28;20519;-76
2023/09/23 00:27:57;;;;;;;2.17;0.87;;;;;;;;;;5034549;28;20920;-75
2023/09/23 00:30:26;;;;;;;2.80;1.17;;;;;;;;;;5034864;28;20440;-76
2023/09/23 00:32:53;;;;;;;2.30;0.93;;;;;;;;;;5034711;28;20482;-76
2023/09/23 00:35:21;;;;;;;2.87;1.30;;;;;;;;;;5034732;28;20444;-76
2023/09/23 00:37:50;;;;;;;1.90;0.90;;;;;;;;;;5053072;28;20966;-76
2023/09/23 00:40:24;;;;;;;2.73;1.17;;;;;;;;;;5054207;28;20925;-76
2023/09/23 00:42:52;;;;;;;3.40;1.20;;;;;;;;;;5054662;28;20482;-76
2023/09/23 00:45:22;;;;;;;2.87;1.30;;;;;;;;;;5054139;28;20514;-76
2023/09/23 00:47:49;;;;;;;2.73;0.90;;;;;;;;;;5054004;28;20809;-76
2023/09/23 00:50:19;;;;;;;3.03;1.17;;;;;;;;;;5054319;28;20531;-76
2023/09/23 00:52:48;;;;;;;2.67;1.30;;;;;;;;;;5054095;28;20978;-75
2023/09/23 00:55:17;;;;;;;2.83;1.37;;;;;;;;;;5054317;28;20530;-75
2023/09/23 00:57:46;;;;;;;2.33;1.17;;;;;;;;;;5053047;28;20455;-76
2023/09/23 01:00:14;;;;;;;2.30;0.83;;;;;;;;;;5053976;28;20829;-76
2023/09/23 01:02:41;;;;;;;2.20;1.00;;;;;;;;;;5053977;28;20440;-75
2023/09/23 01:05:08;;;;;;;2.87;1.10;;;;;;;;;;5053626;28;20624;-75
2023/09/23 01:07:39;;;;;;;2.73;1.00;;;;;;;;;;5053554;28;20547;-76
2023/09/23 01:10:07;;;;;;;2.83;1.03;;;;;;;;;;5053895;28;20437;-75
2023/09/23 01:12:36;;;;;;;2.00;0.90;;;;;;;;;;5053612;28;20518;-76
2023/09/23 01:15:17;;;;;;;2.00;0.83;;;;;;;;;;5053599;28;20443;-75
2023/09/23 01:17:47;;;;;;;2.30;1.10;;;;;;;;;;5040779;28;20455;-76
2023/09/23 01:20:16;;;;;;;2.10;1.00;;;;;;;;;;5032959;28;20484;-75
2023/09/23 01:22:46;;;;;;;8.43;0.90;;;;;;;;;;5033140;28;20451;-75
2023/09/23 01:25:13;;;;;;;5.53;1.27;;;;;;;;;;5033713;28;20488;-76
2023/09/23 01:27:40;;;;;;;2.60;1.33;;;;;;;;;;5048789;28;20521;-75
2023/09/23 01:30:08;;;;;;;3.23;0.97;;;;;;;;;;5041903;28;20797;-76
2023/09/23 01:32:41;;;;;;;2.07;0.93;;;;;;;;;;5033546;28;20437;-76
2023/09/23 01:35:09;;;;;;;2.93;1.20;;;;;;;;;;5034111;28;20482;-75
2023/09/23 01:37:36;;;;;;;2.47;0.83;;;;;;;;;;5014953;28;20815;-75
2023/09/23 01:40:06;;;;;;;2.10;0.90;;;;;;;;;;5053182;28;20874;-76
2023/09/23 01:42:33;;;;;;;2.10;0.90;;;;;;;;;;5053535;28;20486;-75
2023/09/23 01:45:03;;;;;;;3.03;0.90;;;;;;;;;;5052927;28;20471;-75
2023/09/23 01:47:30;;;;;;;3.40;0.80;;;;;;;;;;5052709;28;20445;-76
2023/09/23 01:49:58;;;;;;;1.97;0.90;;;;;;;;;;5050819;28;20448;-76
2023/09/23 01:52:25;;;;;;;2.10;0.80;;;;;;;;;;5033441;28;20491;-76
2023/09/23 01:54:52;;;;;;;2.00;0.87;;;;;;;;;;5033345;28;20444;-75
2023/09/23 01:57:21;;;;;;;2.67;0.83;;;;;;;;;;5042812;28;20990;-75
2023/09/23 01:59:48;;;;;;;1.90;0.80;;;;;;;;;;5052714;28;20475;-76
2023/09/23 02:02:17;;;;;;;2.23;0.90;;;;;;;;;;5052969;28;20476;-75
2023/09/23 02:04:48;;;;;;;2.10;0.97;;;;;;;;;;5052703;28;20443;-76
2023/09/23 02:07:16;;;;;;;1.80;0.70;;;;;;;;;;5053388;28;20426;-76
2023/09/23 02:09:43;;;;;;;2.10;0.93;;;;;;;;;;5052813;28;20489;-76
2023/09/23 02:12:10;;;;;;;4.63;0.60;;;;;;;;;;5053183;28;20485;-75
2023/09/23 02:14:40;;;;;;;2.97;1.17;;;;;;;;;;5053306;28;20427;-75
2023/09/23 02:17:08;;;;;;;2.50;0.80;;;;;;;;;;5053149;28;20846;-75
2023/09/23 02:19:35;;;;;;;2.10;1.00;;;;;;;;;;5033329;28;20946;-76
2023/09/23 02:22:06;;;;;;;1.90;0.70;;;;;;;;;;5034230;28;20455;-75
2023/09/23 02:24:36;;;;;;;2.47;0.77;;;;;;;;;;5036862;28;20848;-75
2023/09/23 02:27:03;;;;;;;2.23;1.13;;;;;;;;;;5037424;28;20561;-76
2023/09/23 02:29:31;;;;;;;2.60;0.80;;;;;;;;;;5040665;28;20840;-75
2023/09/23 02:32:00;;;;;;;2.00;0.80;;;;;;;;;;5051465;28;20439;-75
2023/09/23 02:34:28;;;;;;;2.67;1.20;;;;;;;;;;5040624;28;20447;-75
2023/09/23 02:36:55;;;;;;;2.50;0.90;;;;;;;;;;5036989;28;20499;-75
2023/09/23 02:39:23;;;;;;;1.90;0.80;;;;;;;;;;5036966;28;20536;-75
2023/09/23 02:41:51;;;;;;;2.10;0.90;;;;;;;;;;5055066;28;20451;-76
2023/09/23 02:44:19;;;;;;;2.10;0.90;;;;;;;;;;5056787;28;20435;-76
2023/09/23 02:46:47;;;;;;;1.90;0.60;;;;;;;;;;5056702;28;20474;-75
2023/09/23 02:49:15;;;;;;;2.10;0.83;;;;;;;;;;5056561;28;20431;-76
2023/09/23 02:51:43;;;;;;;3.83;0.90;;;;;;;;;;5038582;28;20909;-75
2023/09/23 02:54:13;;;;;;;3.40;0.80;;;;;;;;;;5036654;28;20828;-76
2023/09/23 02:56:41;;;;;;;2.10;0.80;;;;;;;;;;5036289;28;20444;-75
2023/09/23 02:59:13;;;;;;;2.00;0.80;;;;;;;;;;5052298;28;20440;-75
2023/09/23 03:01:45;;;;;;;2.23;0.90;;;;;;;;;;5052103;28;20500;-76
2023/09/23 03:04:17;;;;;;;1.90;0.73;;;;;;;;;;5027736;28;20812;-76
2023/09/23 03:06:49;;;;;;;2.27;0.80;;;;;;;;;;5039594;28;20554;-76
2023/09/23 03:09:20;;;;;;;2.47;1.13;;;;;;;;;;5036456;28;20433;-75
2023/09/23 03:11:53;;;;;;;2.17;1.13;;;;;;;;;;5052350;28;20443;-76
2023/09/23 03:14:23;;;;;;;2.93;0.70;;;;;;;;;;5056216;28;20435;-75
2023/09/23 03:16:53;;;;;;;2.20;0.90;;;;;;;;;;5055977;28;20448;-76
2023/09/23 03:19:24;;;;;;;2.37;1.17;;;;;;;;;;5055848;28;20426;-76
2023/09/23 03:21:54;;;;;;;1.90;0.87;;;;;;;;;;5039142;28;20437;-75
2023/09/23 03:24:22;;;;;;;3.60;1.20;;;;;;;;;;5036208;28;20443;-76
2023/09/23 03:26:50;;;;;;;2.93;1.50;;;;;;;;;;5035999;28;20541;-76
2023/09/23 03:29:18;;;;;;;1.90;1.00;;;;;;;;;;5035711;28;20448;-76
2023/09/23 03:31:46;;;;;;;3.50;2.00;;;;;;;;;;5050929;28;20479;-76
2023/09/23 03:34:14;;;;;;;2.00;0.80;;;;;;;;;;5042807;28;20441;-75
2023/09/23 03:36:42;;;;;;;3.50;0.90;;;;;;;;;;5035900;28;20440;-75
2023/09/23 03:39:12;;;;;;;2.57;1.13;;;;;;;;;;5035444;28;20490;-76
2023/09/23 03:41:40;;;;;;;2.80;1.13;;;;;;;;;;5049562;28;20452;-76
2023/09/23 03:44:07;;;;;;;3.60;1.00;;;;;;;;;;5052126;28;20440;-76
2023/09/23 03:46:35;;;;;;;2.33;0.90;;;;;;;;;;5035841;28;20522;-75
2023/09/23 03:49:02;;;;;;;3.13;1.10;;;;;;;;;;5035603;28;20432;-75
2023/09/23 03:51:31;;;;;;;2.83;1.00;;;;;;;;;;5038979;28;20481;-76
2023/09/23 03:53:58;;;;;;;2.53;1.00;;;;;;;;;;5034996;28;20531;-76
2023/09/23 03:56:27;;;;;;;2.23;1.00;;;;;;;;;;5035579;28;20526;-75
2023/09/23 03:58:55;;;;;;;2.20;0.80;;;;;;;;;;5035468;28;20437;-76
2023/09/23 04:01:24;;;;;;;2.83;1.30;;;;;;;;;;5046443;28;20465;-76
2023/09/23 04:03:52;;;;;;;1.93;0.80;;;;;;;;;;5055041;28;20449;-76
2023/09/23 04:06:19;;;;;;;2.40;1.07;;;;;;;;;;5054968;28;20480;-75
2023/09/23 04:08:47;;;;;;;2.13;0.90;;;;;;;;;;5054563;28;20528;-75
2023/09/23 04:11:15;;;;;;;2.30;0.90;;;;;;;;;;5044645;28;20441;-75
2023/09/23 04:13:46;;;;;;;2.20;1.00;;;;;;;;;;5035214;28;20487;-75
2023/09/23 04:16:22;;;;;;;2.47;1.00;;;;;;;;;;5035402;28;20512;-76
2023/09/23 04:18:51;;;;;;;2.87;1.23;;;;;;;;;;5034473;28;20440;-75
2023/09/23 04:21:21;;;;;;;2.30;1.00;;;;;;;;;;5044954;28;20456;-76
2023/09/23 04:23:49;;;;;;;3.10;1.00;;;;;;;;;;5054771;28;20197;-76
2023/09/23 04:26:21;;;;;;;3.30;1.70;;;;;;;;;;5054411;28;20511;-76
2023/09/23 04:28:52;;;;;;;5.30;1.10;;;;;;;;;;5055017;28;20829;-75
2023/09/23 04:31:19;;;;;;;2.80;1.30;;;;;;;;;;5044267;28;20448;-76
2023/09/23 04:33:47;;;;;;;2.87;0.93;;;;;;;;;;5034759;28;20437;-75
2023/09/23 04:36:14;;;;;;;1.90;0.80;;;;;;;;;;5033764;28;20442;-75
2023/09/23 04:38:43;;;;;;;3.90;1.10;;;;;;;;;;5034243;28;20441;-76
2023/09/23 04:41:13;;;;;;;2.27;0.97;;;;;;;;;;5038848;28;20450;-76
2023/09/23 04:43:41;;;;;;;3.20;1.00;;;;;;;;;;5034942;28;20448;-75
2023/09/23 04:46:14;;;;;;;2.30;1.10;;;;;;;;;;5033150;28;20508;-75
2023/09/23 04:48:41;;;;;;;1.90;1.00;;;;;;;;;;5034612;28;20482;-75
2023/09/23 04:51:09;;;;;;;2.30;1.00;;;;;;;;;;5042710;28;20440;-75
2023/09/23 04:53:36;;;;;;;3.13;1.00;;;;;;;;;;5054331;28;20475;-76
2023/09/23 04:56:06;;;;;;;2.70;1.60;;;;;;;;;;5053928;28;20475;-76
2023/09/23 04:58:34;;;;;;;3.00;1.63;;;;;;;;;;5053965;28;20792;-75
2023/09/23 05:01:01;;;;;;;2.00;0.90;;;;;;;;;;5046808;28;20575;-76
2023/09/23 05:03:29;;;;;;;2.50;1.00;;;;;;;;;;5033858;28;20448;-75
2023/09/23 05:05:57;;;;;;;2.50;1.00;;;;;;;;;;5034290;28;20863;-75
2023/09/23 05:08:35;;;;;;;2.77;1.00;;;;;;;;;;5152362;27;20497;-74
2023/09/23 05:11:03;;;;;;;2.33;1.00;;;;;;;;;;5144630;27;20430;-75
2023/09/23 05:13:30;;;;;;;3.23;1.43;;;;;;;;;;5131888;28;20809;-75
2023/09/23 05:15:57;;;;;;;1.90;0.93;;;;;;;;;;5131829;27;20839;-75
2023/09/23 05:18:25;;;;;;;2.40;1.10;;;;;;;;;;5131598;28;20860;-75
2023/09/23 05:20:52;;;;;;;2.33;0.93;;;;;;;;;;5136516;27;20480;-75
2023/09/23 05:23:22;;;;;;;2.10;1.00;;;;;;;;;;5152449;27;20509;-75
2023/09/23 05:25:51;;;;;;;2.53;0.90;;;;;;;;;;5142322;27;20498;-75
2023/09/23 05:28:19;;;;;;;2.87;1.10;;;;;;;;;;5129364;28;20974;-75
2023/09/23 05:30:46;;;;;;;2.77;1.10;;;;;;;;;;5131567;27;20524;-75
2023/09/23 05:33:14;;;;;;;2.40;1.00;;;;;;;;;;5129323;28;20438;-75
2023/09/23 05:35:41;;;;;;;2.00;0.90;;;;;;;;;;5129233;28;20533;-74
2023/09/23 05:38:10;;;;;;;2.50;1.00;;;;;;;;;;5125711;28;20494;-74
2023/09/23 05:40:37;;;;;;;1.87;0.70;;;;;;;;;;5129231;27;20446;-75
2023/09/23 05:43:06;;;;;;;2.30;1.23;;;;;;;;;;5129723;28;20794;-75
2023/09/23 05:45:33;;;;;;;1.90;0.83;;;;;;;;;;5132135;27;20521;-74
2023/09/23 05:48:03;;;;;;;2.93;1.00;;;;;;;;;;5129519;28;20474;-75
2023/09/23 05:50:30;;;;;;;1.83;0.70;;;;;;;;;;5130699;27;20923;-75
2023/09/23 05:52:58;;;;;;;2.63;0.90;;;;;;;;;;5129801;27;20453;-74
2023/09/23 05:55:25;;;;;;;2.00;0.80;;;;;;;;;;5129182;28;20529;-75
2023/09/23 05:57:54;;;;;;;2.20;1.10;;;;;;;;;;5128916;28;20499;-75
2023/09/23 06:00:23;;;;;;;2.80;1.47;;;;;;;;;;5128429;27;20449;-75
2023/09/23 06:02:50;;;;;;;2.53;0.90;;;;;;;;;;5126231;28;20434;-74
2023/09/23 06:05:20;;;;;;;3.10;0.97;;;;;;;;;;5129673;27;20438;-74
2023/09/23 06:07:49;;;;;;;1.90;0.70;;;;;;;;;;5127976;28;20489;-75
2023/09/23 06:10:18;;;;;;;2.10;0.90;;;;;;;;;;5127609;28;20426;-74
2023/09/23 06:12:46;;;;;;;2.10;1.00;;;;;;;;;;5128600;28;20434;-75
2023/09/23 06:15:13;;;;;;;2.00;0.93;;;;;;;;;;5128330;28;20490;-75
2023/09/23 06:17:42;;;;;;;2.23;1.23;;;;;;;;;;5128009;28;20843;-73
2023/09/23 06:20:09;;;;;;;3.70;1.10;;;;;;;;;;5114649;28;20762;-75
2023/09/23 06:22:37;;;;;;;3.17;1.10;;;;;;;;;;5114665;28;20545;-75
2023/09/23 06:25:04;;;;;;;3.40;1.10;;;;;;;;;;5114982;28;20438;-75
2023/09/23 06:27:31;;;;;;;2.00;1.10;;;;;;;;;;5114387;28;20802;-74
2023/09/23 06:29:59;;;;;;;2.30;0.87;;;;;;;;;;5114853;28;20434;-75
2023/09/23 06:32:27;;;;;;;2.47;1.00;;;;;;;;;;5114733;28;20470;-74
2023/09/23 06:34:55;;;;;;;2.27;1.10;;;;;;;;;;5116955;27;20484;-75
2023/09/23 06:37:23;;;;;;;1.80;0.60;;;;;;;;;;5114611;28;20484;-74
2023/09/23 06:39:50;;;;;;;2.23;0.93;;;;;;;;;;5117247;27;20435;-75
2023/09/23 06:42:17;;;;;;;2.20;0.80;;;;;;;;;;5117309;27;20435;-75
2023/09/23 06:44:45;;;;;;;1.90;0.73;;;;;;;;;;5113767;28;20480;-73
2023/09/23 06:47:12;;;;;;;2.30;1.20;;;;;;;;;;5114637;27;20473;-75
2023/09/23 06:49:40;;;;;;;3.17;0.90;;;;;;;;;;5118595;27;20458;-74
2023/09/23 06:52:08;;;;;;;1.90;0.83;;;;;;;;;;5114278;28;20434;-75
2023/09/23 06:54:36;;;;;;;5.80;3.00;;;;;;;;;;5113952;28;20499;-75
2023/09/23 06:57:03;;;;;;;3.67;1.93;;;;;;;;;;5113702;28;20455;-75
2023/09/23 06:59:30;;;;;;;2.07;1.00;;;;;;;;;;5113849;28;20427;-75
2023/09/23 07:01:58;;;;;;;2.60;1.33;;;;;;;;;;5114058;28;20761;-74
2023/09/23 07:04:25;;;;;;;2.93;1.07;;;;;;;;;;5109744;28;20463;-75
2023/09/23 07:06:53;;;;;;;5.10;1.30;;;;;;;;;;5113401;28;20541;-75
2023/09/23 07:09:21;;;;;;;2.23;0.93;;;;;;;;;;5113803;28;20439;-75
2023/09/23 07:11:49;;;;;;;2.50;0.80;;;;;;;;;;5121492;27;20439;-75
2023/09/23 07:14:16;;;;;;;3.10;0.70;;;;;;;;;;5116300;27;20434;-75
2023/09/23 07:16:43;;;;;;;2.77;0.90;;;;;;;;;;5114840;28;20769;-75
2023/09/23 07:19:11;;;;;;;3.40;1.80;;;;;;;;;;5125245;27;20485;-75
2023/09/23 07:21:38;;;;;;;10.40;1.20;;;;;;;;;;5109123;27;20798;-75
2023/09/23 07:24:06;;;;;;;2.20;1.00;;;;;;;;;;5133603;27;21000;-75
2023/09/23 07:26:34;;;;;;;2.00;0.80;;;;;;;;;;5135687;27;20434;-75
2023/09/23 07:29:02;;;;;;;2.20;0.83;;;;;;;;;;5135873;27;20530;-75
2023/09/23 07:31:31;;;;;;;2.43;1.00;;;;;;;;;;5134982;27;20434;-74
2023/09/23 07:33:58;;;;;;;2.67;1.13;;;;;;;;;;5135771;27;20461;-75
2023/09/23 07:36:25;;;;;;;3.30;0.93;;;;;;;;;;5135785;27;20554;-75
2023/09/23 07:38:52;;;;;;;2.10;0.80;;;;;;;;;;5135393;27;20448;-75
2023/09/23 07:41:20;;;;;;;2.10;0.83;;;;;;;;;;5135322;27;20455;-75
2023/09/23 07:43:49;;;;;;;3.07;0.90;;;;;;;;;;5135378;27;20426;-75
2023/09/23 07:46:17;;;;;;;2.20;0.90;;;;;;;;;;5135962;27;20873;-74
2023/09/23 07:48:44;;;;;;;3.73;0.90;;;;;;;;;;5135461;27;20501;-75
2023/09/23 07:51:12;;;;;;;2.30;0.90;;;;;;;;;;5135591;27;20434;-75
2023/09/23 07:53:39;;;;;;;2.63;1.03;;;;;;;;;;5135200;27;20479;-75
2023/09/23 07:56:06;;;;;;;2.40;1.00;;;;;;;;;;5135129;27;20491;-75
2023/09/23 07:58:46;;;;;;;1.90;0.80;;;;;;;;;;5135013;27;20433;-75
2023/09/23 08:01:15;;;;;;;1.90;0.80;;;;;;;;;;5135314;27;20464;-75
2023/09/23 08:03:42;;;;;;;2.33;0.80;;;;;;;;;;5135185;27;20430;-75
2023/09/23 08:06:10;;;;;;;2.40;1.03;;;;;;;;;;5135053;27;20429;-74
2023/09/23 08:08:37;;;;;;;1.90;0.90;;;;;;;;;;5135122;27;20483;-75
2023/09/23 08:11:05;;;;;;;2.30;0.80;;;;;;;;;;5134862;27;20530;-75
2023/09/23 08:13:32;;;;;;;2.20;0.77;;;;;;;;;;5135058;27;20444;-75
2023/09/23 08:15:59;;;;;;;2.20;0.93;;;;;;;;;;5135058;27;20545;-75
2023/09/23 08:18:28;;;;;;;2.50;0.90;;;;;;;;;;5134633;27;20434;-75
2023/09/23 08:20:59;;;;;;;2.77;0.93;;;;;;;;;;5134683;27;20483;-75
2023/09/23 08:23:26;;;;;;;1.93;0.90;;;;;;;;;;5134961;27;20440;-75
2023/09/23 08:25:54;;;;;;;4.07;1.07;;;;;;;;;;5134969;27;20434;-75
2023/09/23 08:28:23;;;;;;;2.00;0.90;;;;;;;;;;5134752;27;20501;-75
2023/09/23 08:30:50;;;;;;;2.67;1.10;;;;;;;;;;5134502;27;20487;-75
2023/09/23 08:33:18;;;;;;;2.40;1.30;;;;;;;;;;5134703;27;20489;-75
2023/09/23 08:35:49;;;;;;;2.00;1.10;;;;;;;;;;5134629;27;20502;-75
2023/09/23 08:38:16;;;;;;;2.77;1.00;;;;;;;;;;5134521;27;20778;-75
2023/09/23 08:40:45;;;;;;;2.20;0.90;;;;;;;;;;5134620;27;20463;-75
2023/09/23 08:43:12;;;;;;;2.37;0.90;;;;;;;;;;5134490;27;20517;-75
2023/09/23 08:45:43;;;;;;;1.93;1.00;;;;;;;;;;5134587;27;20430;-75
2023/09/23 08:48:13;;;;;;;1.83;0.70;;;;;;;;;;5134463;27;20489;-75
2023/09/23 08:50:43;;;;;;;2.00;0.80;;;;;;;;;;5134282;27;20961;-75
2023/09/23 08:53:12;;;;;;;2.43;0.80;;;;;;;;;;5134499;27;20429;-75
2023/09/23 08:55:40;;;;;;;2.97;0.70;;;;;;;;;;5134242;27;20429;-75
2023/09/23 08:58:07;;;;;;;2.17;0.90;;;;;;;;;;5134061;27;20437;-75
2023/09/23 09:00:34;;;;;;;2.07;0.80;;;;;;;;;;5134476;27;20469;-75
2023/09/23 09:03:02;;;;;;;5.40;0.90;;;;;;;;;;5134010;27;20802;-75
2023/09/23 09:05:37;;;;;;;5.17;0.90;;;;;;;;;;5134086;28;20469;-75
2023/09/23 09:08:05;;;;;;;6.20;1.10;;;;;;;;;;5133836;28;20878;-75
2023/09/23 09:10:34;;;;;;;2.20;1.10;;;;;;;;;;5134074;28;20473;-75
2023/09/23 09:13:02;;;;;;;2.73;0.90;;;;;;;;;;5134343;28;20440;-75
2023/09/23 09:15:31;;;;;;;1.93;0.70;;;;;;;;;;5134414;27;20765;-75
2023/09/23 09:17:59;;;;;;;1.90;0.70;;;;;;;;;;5133873;28;20528;-75
2023/09/23 09:20:26;;;;;;;2.67;0.80;;;;;;;;;;5134210;28;20436;-75
2023/09/23 09:22:53;;;;;;;4.57;1.10;;;;;;;;;;5133925;28;20444;-75
2023/09/23 09:25:24;;;;;;;2.00;0.67;;;;;;;;;;5134226;28;20487;-75
2023/09/23 09:27:53;;;;;;;3.20;1.40;;;;;;;;;;5134123;28;20454;-75
2023/09/23 09:30:20;;;;;;;3.37;1.60;;;;;;;;;;5133805;28;20520;-75
2023/09/23 09:32:48;;;;;;;2.60;0.80;;;;;;;;;;5134047;28;20438;-75
2023/09/23 09:35:17;;;;;;;3.73;1.30;;;;;;;;;;5134167;27;20830;-75
2023/09/23 09:37:45;;;;;;;2.30;1.10;;;;;;;;;;5133783;28;20437;-75
2023/09/23 09:40:17;;;;;;;2.93;0.90;;;;;;;;;;5133776;28;20500;-75
2023/09/23 09:42:48;;;;;;;1.90;0.63;;;;;;;;;;5134296;28;20430;-75
2023/09/23 09:45:19;;;;;;;3.03;1.20;;;;;;;;;;5133863;28;20945;-75
2023/09/23 09:47:48;;;;;;;3.67;1.07;;;;;;;;;;5133856;28;20425;-75
2023/09/23 09:50:16;;;;;;;2.30;0.70;;;;;;;;;;5133990;27;20801;-75
2023/09/23 09:52:45;;;;;;;5.33;0.87;;;;;;;;;;5133982;27;20434;-75
2023/09/23 09:55:15;;;;;;;1.93;0.70;;;;;;;;;;5137522;27;20437;-75
2023/09/23 09:57:43;;;;;;;3.17;0.80;;;;;;;;;;5137643;27;20421;-75
2023/09/23 10:00:23;;;;;;;2.63;1.07;;;;;;;;;;5137834;27;20432;-75
2023/09/23 10:02:57;;;;;;;1.77;0.60;;;;;;;;;;5137734;27;20453;-75
2023/09/23 10:05:26;;;;;;;1.70;0.60;;;;;;;;;;5137678;27;20414;-75
2023/09/23 10:07:55;;;;;;;2.10;0.70;;;;;;;;;;5137191;27;20542;-74
2023/09/23 10:10:31;;;;;;;2.20;0.80;;;;;;;;;;5137169;27;20429;-75
2023/09/23 10:12:59;;;;;;;2.30;0.80;;;;;;;;;;5137543;27;20425;-75
2023/09/23 10:15:28;;;;;;;4.93;1.07;;;;;;;;;;5137354;27;20465;-75
2023/09/23 10:17:57;;;;;;;7.30;3.77;;;;;;;;;;5137278;27;20441;-75
2023/09/23 10:20:41;;;;;;;3.87;1.77;;;;;;;;;;5137350;27;20434;-75
2023/09/23 10:23:16;;;;;;;3.73;1.60;;;;;;;;;;5137392;27;20907;-76
2023/09/23 10:25:44;;;;;;;2.07;0.73;;;;;;;;;;5137089;27;20453;-75
2023/09/23 10:28:21;;;;;;;3.50;0.77;;;;;;;;;;5137129;27;20527;-75
2023/09/23 10:30:57;;;;;;;2.10;0.90;;;;;;;;;;5136991;27;21038;-74
2023/09/23 10:33:26;;;;;;;2.10;0.90;;;;;;;;;;5137160;27;20413;-75
2023/09/23 10:35:53;;;;;;;2.07;0.77;;;;;;;;;;5136971;27;20465;-75
2023/09/23 10:38:24;;;;;;;2.00;0.70;;;;;;;;;;5136384;27;20440;-75
2023/09/23 10:40:52;;;;;;;2.77;1.33;;;;;;;;;;5136721;27;20912;-74
2023/09/23 10:43:21;;;;;;;2.77;0.80;;;;;;;;;;5136648;27;20448;-75
2023/09/23 10:45:49;;;;;;;2.80;0.90;;;;;;;;;;5136903;27;20920;-75
2023/09/23 10:48:17;;;;;;;2.40;0.80;;;;;;;;;;5136534;27;20560;-75
2023/09/23 10:50:46;;;;;;;2.40;0.90;;;;;;;;;;5136778;27;20429;-75
2023/09/23 10:53:14;;;;;;;2.00;0.80;;;;;;;;;;5120446;27;20446;-74
2023/09/23 10:55:41;;;;;;;2.00;0.60;;;;;;;;;;5120049;27;20443;-75
2023/09/23 10:58:09;;;;;;;4.10;1.00;;;;;;;;;;5117412;27;20458;-75
2023/09/23 11:00:37;;;;;;;1.90;0.70;;;;;;;;;;5129522;27;20635;-75
2023/09/23 11:03:09;;;;;;;3.13;0.80;;;;;;;;;;5130742;27;20486;-75
2023/09/23 11:05:38;;;;;;;2.67;0.90;;;;;;;;;;5127077;27;20449;-75
2023/09/23 11:08:10;;;;;;;3.60;1.63;;;;;;;;;;5114634;28;21063;-75
2023/09/23 11:10:39;;;;;;;1.83;0.67;;;;;;;;;;5115387;28;20422;-75
2023/09/23 11:13:10;;;;;;;1.80;0.60;;;;;;;;;;5114769;28;20897;-75
2023/09/23 11:15:38;;;;;;;2.07;0.90;;;;;;;;;;5115334;28;20427;-75
2023/09/23 11:18:08;;;;;;;3.70;0.87;;;;;;;;;;5127747;27;20928;-75
2023/09/23 11:20:35;;;;;;;5.70;0.90;;;;;;;;;;5135243;27;20422;-74
2023/09/23 11:23:05;;;;;;;2.57;0.70;;;;;;;;;;5119530;27;20439;-75
2023/09/23 11:25:36;;;;;;;2.00;0.80;;;;;;;;;;5117904;27;20470;-75
2023/09/23 11:28:03;;;;;;;2.67;0.97;;;;;;;;;;5112039;28;20438;-75
2023/09/23 11:30:31;;;;;;;2.40;1.10;;;;;;;;;;5113965;28;20431;-75
2023/09/23 11:32:58;;;;;;;2.40;1.10;;;;;;;;;;5129402;27;20529;-75
2023/09/23 11:35:25;;;;;;;2.70;1.10;;;;;;;;;;5135007;27;20441;-75
2023/09/23 11:37:54;;;;;;;2.60;1.17;;;;;;;;;;5134800;27;20970;-75
2023/09/23 11:40:23;;;;;;;3.00;1.07;;;;;;;;;;5134904;27;20434;-75
2023/09/23 11:42:53;;;;;;;2.43;0.83;;;;;;;;;;5121494;27;20792;-75
2023/09/23 11:45:21;;;;;;;2.60;0.77;;;;;;;;;;5114146;28;20924;-75
2023/09/23 11:47:49;;;;;;;1.80;0.60;;;;;;;;;;5113931;28;20501;-74
2023/09/23 11:50:16;;;;;;;2.30;0.73;;;;;;;;;;5115036;27;20836;-74
2023/09/23 11:52:43;;;;;;;2.77;0.90;;;;;;;;;;5134368;27;20430;-75
2023/09/23 11:55:14;;;;;;;3.90;1.10;;;;;;;;;;5134112;27;20429;-75
2023/09/23 11:57:41;;;;;;;4.97;2.23;;;;;;;;;;5127364;27;20494;-75
2023/09/23 12:00:11;;;;;;;2.60;1.00;;;;;;;;;;5113618;28;20435;-75
2023/09/23 12:02:41;;;;;;;4.20;1.23;;;;;;;;;;5113988;28;20492;-74
2023/09/23 12:05:11;;;;;;;2.23;0.83;;;;;;;;;;5113899;27;20422;-75
2023/09/23 12:07:38;;;;;;;2.43;1.00;;;;;;;;;;5114727;27;20454;-75
2023/09/23 12:10:06;;;;;;;5.30;0.90;;;;;;;;;;5110945;27;20570;-75
2023/09/23 12:12:34;;;;;;;2.17;1.00;;;;;;;;;;5124122;27;20442;-75
2023/09/23 12:15:02;;;;;;;3.13;0.60;;;;;;;;;;5113608;28;20431;-75
2023/09/23 12:17:31;;;;;;;2.00;0.60;;;;;;;;;;5112512;28;20438;-75
2023/09/23 12:19:58;;;;;;;2.10;0.70;;;;;;;;;;5113952;28;20442;-75
2023/09/23 12:22:30;;;;;;;2.67;0.70;;;;;;;;;;5113816;28;20917;-75
2023/09/23 12:24:57;;;;;;;2.33;0.80;;;;;;;;;;5113746;28;20427;-75
2023/09/23 12:27:27;;;;;;;3.10;0.80;;;;;;;;;;5113931;28;20504;-74
2023/09/23 12:29:55;;;;;;;5.10;0.90;;;;;;;;;;5114357;28;20474;-75
2023/09/23 12:32:23;;;;;;;2.00;0.80;;;;;;;;;;5113775;28;20434;-75
2023/09/23 12:34:51;;;;;;;3.00;0.70;;;;;;;;;;5113653;28;20973;-75
2023/09/23 12:37:19;;;;;;;2.30;0.70;;;;;;;;;;5113813;28;20495;-75
2023/09/23 12:39:46;;;;;;;2.20;1.00;;;;;;;;;;5113797;28;20521;-74
2023/09/23 12:42:14;;;;;;;2.00;0.83;;;;;;;;;;5113715;28;20442;-75
2023/09/23 12:44:42;;;;;;;1.87;0.70;;;;;;;;;;5113605;28;20513;-75
2023/09/23 12:47:09;;;;;;;2.07;0.73;;;;;;;;;;5113807;27;20441;-75
2023/09/23 12:49:37;;;;;;;2.40;0.77;;;;;;;;;;5125394;27;20652;-75
2023/09/23 12:52:06;;;;;;;2.30;0.80;;;;;;;;;;5118885;27;20510;-75
2023/09/23 12:54:33;;;;;;;2.57;0.70;;;;;;;;;;5133702;27;20434;-75
2023/09/23 12:57:00;;;;;;;2.00;0.73;;;;;;;;;;5133910;27;20434;-74
2023/09/23 12:59:28;;;;;;;3.10;0.87;;;;;;;;;;5121776;27;20436;-75
2023/09/23 13:01:55;;;;;;;1.80;0.70;;;;;;;;;;5109432;28;20431;-75
2023/09/23 13:04:22;;;;;;;3.17;1.10;;;;;;;;;;5118149;27;20433;-75
2023/09/23 13:06:50;;;;;;;4.50;0.97;;;;;;;;;;5127061;28;21419;-75
2023/09/23 13:09:19;;;;;;;4.73;1.27;;;;;;;;;;5112715;28;20506;-75
2023/09/23 13:11:46;;;;;;;2.27;0.80;;;;;;;;;;5127316;28;20440;-75
2023/09/23 13:14:13;;;;;;;3.00;0.73;;;;;;;;;;5129512;28;20461;-75
2023/09/23 13:16:41;;;;;;;2.37;0.70;;;;;;;;;;5103568;28;20434;-75
2023/09/23 13:19:08;;;;;;;2.27;0.83;;;;;;;;;;5113145;28;20470;-75
2023/09/23 13:21:36;;;;;;;2.10;0.70;;;;;;;;;;5112809;28;20925;-75
2023/09/23 13:24:03;;;;;;;3.70;0.70;;;;;;;;;;5113102;28;20435;-75
2023/09/23 13:26:32;;;;;;;3.50;1.20;;;;;;;;;;5119203;28;20438;-75
2023/09/23 13:28:59;;;;;;;2.50;1.00;;;;;;;;;;5128855;27;20944;-75
2023/09/23 13:31:26;;;;;;;3.70;1.37;;;;;;;;;;5117191;28;20439;-75
2023/09/23 13:33:54;;;;;;;2.77;0.90;;;;;;;;;;5116752;28;20435;-75
2023/09/23 13:36:21;;;;;;;2.57;0.80;;;;;;;;;;5116377;28;20430;-75
2023/09/23 13:38:51;;;;;;;3.40;1.50;;;;;;;;;;5116412;28;20928;-75
2023/09/23 13:41:24;;;;;;;2.00;0.80;;;;;;;;;;5116443;28;20916;-75
2023/09/23 13:43:53;;;;;;;1.80;0.60;;;;;;;;;;5116098;28;20487;-75
2023/09/23 13:46:22;;;;;;;3.07;1.00;;;;;;;;;;5116522;28;20431;-75
2023/09/23 13:48:49;;;;;;;2.53;0.87;;;;;;;;;;5116285;28;20837;-75
2023/09/23 13:51:16;;;;;;;2.07;0.70;;;;;;;;;;5116130;28;20438;-75
2023/09/23 13:53:45;;;;;;;2.43;0.90;;;;;;;;;;5121632;27;20487;-75
2023/09/23 13:56:12;;;;;;;4.03;0.70;;;;;;;;;;5133697;27;20451;-75
2023/09/23 13:58:40;;;;;;;2.40;0.77;;;;;;;;;;5116142;28;20920;-75
2023/09/23 14:01:09;;;;;;;1.90;0.70;;;;;;;;;;5116063;28;20453;-75
2023/09/23 14:03:36;;;;;;;2.50;1.07;;;;;;;;;;5119867;27;20434;-75
2023/09/23 14:06:05;;;;;;;2.67;0.70;;;;;;;;;;5137123;27;20474;-75
2023/09/23 14:08:32;;;;;;;2.20;0.70;;;;;;;;;;5095729;28;20439;-75
2023/09/23 14:10:59;;;;;;;3.13;0.90;;;;;;;;;;5093821;28;20475;-75
2023/09/23 14:13:27;;;;;;;2.20;0.70;;;;;;;;;;5074569;28;20880;-75
2023/09/23 14:15:54;;;;;;;2.23;0.80;;;;;;;;;;5075429;28;20969;-75
2023/09/23 14:18:23;;;;;;;2.13;0.83;;;;;;;;;;5071799;28;20441;-75
2023/09/23 14:20:51;;;;;;;5.00;0.90;;;;;;;;;;5075198;28;20482;-75
2023/09/23 14:23:18;;;;;;;2.70;1.00;;;;;;;;;;5075027;28;20486;-75
2023/09/23 14:25:45;;;;;;;3.47;1.10;;;;;;;;;;5074968;28;20477;-75
2023/09/23 14:28:12;;;;;;;4.80;0.90;;;;;;;;;;5063976;28;20425;-75
2023/09/23 14:30:40;;;;;;;3.70;0.90;;;;;;;;;;5074080;28;20514;-75
2023/09/23 14:33:10;;;;;;;3.27;1.03;;;;;;;;;;5089250;28;20446;-75
2023/09/23 14:35:38;;;;;;;2.67;0.80;;;;;;;;;;5094730;28;20468;-75
2023/09/23 14:38:06;;;;;;;2.00;0.63;;;;;;;;;;5088204;28;20529;-75
2023/09/23 14:40:35;;;;;;;2.73;1.33;;;;;;;;;;5085923;28;20443;-75
2023/09/23 14:43:06;;;;;;;2.50;0.90;;;;;;;;;;5095319;28;20935;-75
2023/09/23 14:45:34;;;;;;;2.20;0.70;;;;;;;;;;5096717;28;20443;-75
2023/09/23 14:48:02;;;;;;;2.30;0.83;;;;;;;;;;5095275;28;20496;-75
2023/09/23 14:50:42;;;;;;;2.43;0.80;;;;;;;;;;5095487;28;20468;-75